Aérodrome :
LOGIN :

S'inscrire | Disclaimer

   EN    FR    IT 

 










Légende :    VFR   VFR Marginal   IFR   IFR Intensif   IFR Très Intensif
Visi : 
Plafond : 
>= 8 km
>= 3000ft
5 à 8 km
1000 à 3000 ft
1500m à 5 km
500 à 1000 ft
800 à 1500m
200 à 500 ft
< 800m
< 200 ft
Symboles :   Orages  Brouillard  Fortes neiges  Fortes précipitations  Vent > 20 kt
SIGMETs :   Divers  Orages  Givrage  Turbulence  Onde Orograph.  Cendres Volcan.






- Altitude de l'aérodrome : 963 ft
- Code IATA : TGM


LRTM - Transilvania Târgu Mureş Int.

DERNIER METAR :
  • 240000Z AUTO 09005KT 4600 BR NCD 07/06 Q1022

METARs EXPIRÉS :
  • 232330Z AUTO 10006KT 5000 BR NCD 09/07 Q1022
  • 232300Z AUTO 10006KT 5000 BR NCD 09/07 Q1022
  • 232230Z AUTO 10005KT 5000 BR NCD 08/07 Q1022
  • 232200Z AUTO 09005KT 5000 BR NCD 09/08 Q1022
  • 232130Z AUTO 10005KT 5000 BR NCD 10/09 Q1022

TAF TAF LRTM
Valide du 23 à 21h jusqu'au 24 à 06h UTC


232000Z 2321/2406 VRB04KT 3000 BR NSC
BECMG 2321/2323 0800 FG BKN003
PROB30
TEMPO 2400/2405 0300 FG VV001



MET'MAP, la Météo Aéronautique d'un coup d'oeil ! - Copyright ORBIFLY Décembre 2007 - Disclaimer

ORBIFLY MET'MAP TEAM :

Programmation & Développement : Alexandra Zaïnal
Conception & Développement : Baudouin d'Aumeries
Co-Programmation & Développement : Marc-Olivier Méhu
Soutien technique & logistique : Manuel Goepfert

Contact : metmap@orbifly.com




SOURCES & CREDITS :

   NOAA